createdAt,value
2023-02-16T00:02:33.798Z,0.9
2023-02-16T00:05:21.144Z,0.8
2023-02-16T00:08:11.260Z,0.8
2023-02-16T00:10:58.817Z,0.8
2023-02-16T00:14:17.995Z,0.8
2023-02-16T00:17:07.978Z,0.8
2023-02-16T00:19:56.916Z,0.7
2023-02-16T00:22:44.207Z,0.7
2023-02-16T00:25:31.523Z,0.6
2023-02-16T00:28:19.566Z,0.6
2023-02-16T00:31:08.004Z,0.6
2023-02-16T00:34:02.605Z,0.6
2023-02-16T00:37:11.398Z,0.6
2023-02-16T00:39:59.494Z,0.6
2023-02-16T00:42:46.875Z,0.6
2023-02-16T00:45:34.181Z,0.6
2023-02-16T00:48:23.285Z,0.5
2023-02-16T00:51:24.753Z,0.5
2023-02-16T00:54:12.997Z,0.4
2023-02-16T00:57:00.736Z,0.4
2023-02-16T00:59:48.242Z,0.4
2023-02-16T01:02:43.420Z,0.4
2023-02-16T01:05:33.752Z,0.4
2023-02-16T01:08:21.274Z,0.4
2023-02-16T01:11:40.463Z,0.4
2023-02-16T01:14:27.803Z,0.4
2023-02-16T01:17:16.828Z,0.4
2023-02-16T01:20:04.488Z,0.4
2023-02-16T01:23:00.007Z,0.3
2023-02-16T01:25:47.427Z,0.3
2023-02-16T01:28:35.277Z,0.3
2023-02-16T01:31:22.793Z,0.3
2023-02-16T01:34:10.653Z,0.3
2023-02-16T01:36:59.041Z,0.3
2023-02-16T01:39:46.531Z,0.2
2023-02-16T01:42:34.060Z,0.2
2023-02-16T01:45:31.695Z,0.2
2023-02-16T01:48:22.734Z,0.2
2023-02-16T01:51:12.758Z,0.2
2023-02-16T01:54:04.284Z,0.1
2023-02-16T01:57:00.009Z,0.1
2023-02-16T01:59:54.492Z,0.1
2023-02-16T02:02:54.123Z,0
2023-02-16T02:08:19.541Z,0
2023-02-16T02:11:15.380Z,-0.1
2023-02-16T02:14:08.388Z,-0.1
2023-02-16T02:17:02.739Z,-0.1
2023-02-16T02:19:53.806Z,-0.1
2023-02-16T02:22:50.541Z,-0.2
2023-02-16T02:26:24.999Z,-0.2
2023-02-16T02:29:51.506Z,-0.2
2023-02-16T02:32:50.983Z,-0.2
2023-02-16T02:35:58.395Z,-0.2
2023-02-16T02:38:58.925Z,-0.3
2023-02-16T02:42:03.496Z,-0.3
2023-02-16T02:44:55.674Z,-0.3
2023-02-16T02:47:52.615Z,-0.3
2023-02-16T02:50:41.046Z,-0.3
2023-02-16T02:54:05.782Z,-0.3
2023-02-16T02:57:28.000Z,-0.3
2023-02-16T03:00:54.430Z,-0.3
2023-02-16T03:03:42.567Z,-0.3
2023-02-16T03:06:34.516Z,-0.3
2023-02-16T03:09:25.842Z,-0.4
2023-02-16T03:12:13.565Z,-0.3
2023-02-16T03:15:32.872Z,-0.3
2023-02-16T03:18:21.261Z,-0.3
2023-02-16T03:21:43.425Z,-0.4
2023-02-16T03:25:02.990Z,-0.4
2023-02-16T03:28:22.711Z,-0.4
2023-02-16T03:31:45.164Z,-0.4
2023-02-16T03:34:33.489Z,-0.4
2023-02-16T03:37:22.285Z,-0.4
2023-02-16T03:40:10.394Z,-0.4
2023-02-16T03:43:17.721Z,-0.4
2023-02-16T03:46:09.315Z,-0.4
2023-02-16T03:48:56.830Z,-0.5
2023-02-16T03:51:44.223Z,-0.5
2023-02-16T03:54:31.776Z,-0.5
2023-02-16T03:57:19.215Z,-0.5
2023-02-16T04:00:06.520Z,-0.5
2023-02-16T04:02:55.204Z,-0.5
2023-02-16T04:05:42.715Z,-0.6
2023-02-16T04:08:30.243Z,-0.6
2023-02-16T04:11:17.583Z,-0.6
2023-02-16T04:14:36.500Z,-0.6
2023-02-16T04:17:23.830Z,-0.7
2023-02-16T04:20:11.289Z,-0.7
2023-02-16T04:23:02.136Z,-0.8
2023-02-16T04:25:50.209Z,-0.8
2023-02-16T04:28:37.604Z,-0.8
2023-02-16T04:31:25.616Z,-0.8
2023-02-16T04:34:13.127Z,-0.8
2023-02-16T04:37:00.505Z,-0.8
2023-02-16T04:39:47.980Z,-0.8
2023-02-16T04:42:35.664Z,-0.8
2023-02-16T04:45:22.973Z,-0.8
2023-02-16T04:48:10.358Z,-0.8
2023-02-16T04:50:57.662Z,-0.8
2023-02-16T04:53:45.038Z,-0.8
2023-02-16T04:56:32.536Z,-0.8
2023-02-16T04:59:20.000Z,-0.8
2023-02-16T05:02:07.709Z,-0.8
2023-02-16T05:04:55.386Z,-0.8
2023-02-16T05:07:42.674Z,-0.8
2023-02-16T05:10:30.057Z,-0.8
2023-02-16T05:13:17.351Z,-0.9
2023-02-16T05:16:36.162Z,-0.9
2023-02-16T05:19:23.576Z,-0.9
2023-02-16T05:22:11.031Z,-0.9
2023-02-16T05:24:59.468Z,-0.9
2023-02-16T05:27:47.426Z,-0.9
2023-02-16T05:30:34.860Z,-0.9
2023-02-16T05:33:22.358Z,-0.9
2023-02-16T05:36:09.699Z,-0.9
2023-02-16T05:38:57.045Z,-0.9
2023-02-16T05:41:44.459Z,-0.9
2023-02-16T05:44:31.981Z,-0.9
2023-02-16T05:47:19.324Z,-0.9
2023-02-16T05:50:06.633Z,-0.9
2023-02-16T05:52:54.857Z,-1
2023-02-16T05:55:42.755Z,-1
2023-02-16T05:58:30.057Z,-1
2023-02-16T06:01:17.474Z,-1
2023-02-16T06:04:05.412Z,-1
2023-02-16T06:06:53.785Z,-1
2023-02-16T06:09:42.215Z,-1
2023-02-16T06:12:29.643Z,-1
2023-02-16T06:15:17.018Z,-1
2023-02-16T06:18:04.542Z,-1
2023-02-16T06:20:52.216Z,-1
2023-02-16T06:23:42.955Z,-1
2023-02-16T06:26:30.278Z,-1
2023-02-16T06:29:18.014Z,-1
2023-02-16T06:32:05.464Z,-0.9
2023-02-16T06:34:53.518Z,-0.9
2023-02-16T06:37:41.934Z,-0.9
2023-02-16T06:40:29.408Z,-0.9
2023-02-16T06:43:16.767Z,-0.9
2023-02-16T06:46:04.243Z,-0.9
2023-02-16T06:48:51.720Z,-0.9
2023-02-16T06:51:40.299Z,-0.8
2023-02-16T06:54:27.648Z,-0.8
2023-02-16T06:57:15.276Z,-0.8
2023-02-16T07:00:02.972Z,-0.8
2023-02-16T07:02:53.028Z,-0.7
2023-02-16T07:05:41.814Z,-0.7
2023-02-16T07:08:29.148Z,-0.7
2023-02-16T07:11:17.181Z,-0.7
2023-02-16T07:14:05.261Z,-0.7
2023-02-16T07:16:52.927Z,-0.7
2023-02-16T07:19:43.701Z,-0.6
2023-02-16T07:22:31.095Z,-0.6
2023-02-16T07:25:18.882Z,-0.5
2023-02-16T07:28:06.545Z,-0.5
2023-02-16T07:30:54.181Z,-0.4
2023-02-16T07:33:42.536Z,-0.4
2023-02-16T07:36:30.663Z,-0.3
2023-02-16T07:39:18.078Z,-0.2
2023-02-16T07:42:05.462Z,-0.2
2023-02-16T07:44:53.052Z,-0.1
2023-02-16T07:47:41.518Z,0
2023-02-16T07:50:29.037Z,0.1
2023-02-16T07:53:16.504Z,0.2
2023-02-16T07:56:03.989Z,0.2
2023-02-16T07:58:51.933Z,0.3
2023-02-16T08:01:41.469Z,0.4
2023-02-16T08:04:28.736Z,0.5
2023-02-16T08:07:16.052Z,0.6
2023-02-16T08:10:04.688Z,0.7
2023-02-16T08:12:53.718Z,0.8
2023-02-16T08:15:42.039Z,0.8
2023-02-16T08:18:29.727Z,0.9
2023-02-16T08:21:17.112Z,1
2023-02-16T08:24:06.385Z,1
2023-02-16T08:26:57.851Z,1.1
2023-02-16T08:29:45.990Z,1.2
2023-02-16T08:32:33.393Z,1.2
2023-02-16T08:35:20.883Z,1.3
2023-02-16T08:38:08.388Z,1.4
2023-02-16T08:40:55.857Z,1.5
2023-02-16T08:43:44.297Z,1.5
2023-02-16T08:46:32.421Z,1.6
2023-02-16T08:49:22.113Z,1.6
2023-02-16T08:52:09.693Z,1.6
2023-02-16T08:54:57.436Z,1.7
2023-02-16T08:57:44.855Z,1.7
2023-02-16T09:00:32.314Z,1.8
2023-02-16T09:03:19.627Z,1.9
2023-02-16T09:06:07.588Z,2
2023-02-16T09:08:56.927Z,2
2023-02-16T09:11:44.292Z,2.1
2023-02-16T09:14:32.281Z,2.2
2023-02-16T09:17:19.696Z,2.3
2023-02-16T09:20:06.967Z,2.4
2023-02-16T09:22:55.505Z,2.5
2023-02-16T09:25:43.322Z,2.6
2023-02-16T09:28:30.715Z,2.6
2023-02-16T09:31:18.794Z,2.7
2023-02-16T09:34:10.754Z,2.8
2023-02-16T09:37:02.658Z,2.8
2023-02-16T09:39:50.505Z,2.9
2023-02-16T09:42:37.991Z,2.9
2023-02-16T09:45:43.544Z,3
2023-02-16T09:48:34.254Z,3
2023-02-16T09:51:34.278Z,3.1
2023-02-16T09:54:25.700Z,3.1
2023-02-16T09:57:24.660Z,3.2
2023-02-16T10:00:26.779Z,3.3
2023-02-16T10:03:28.976Z,3.4
2023-02-16T10:06:30.517Z,3.4
2023-02-16T10:09:33.253Z,3.5
2023-02-16T10:12:21.590Z,3.6
2023-02-16T10:15:14.191Z,3.7
2023-02-16T10:18:06.809Z,3.9
2023-02-16T10:21:03.576Z,4
2023-02-16T10:23:59.861Z,4
2023-02-16T10:26:50.568Z,4.1
2023-02-16T10:29:47.112Z,4.2
2023-02-16T10:32:37.254Z,4.4
2023-02-16T10:35:40.634Z,4.5
2023-02-16T10:38:32.521Z,4.7
2023-02-16T10:41:28.264Z,4.7
2023-02-16T10:44:19.478Z,4.9
2023-02-16T10:47:11.547Z,5
2023-02-16T10:50:12.484Z,5.1
2023-02-16T10:53:09.989Z,5.2
2023-02-16T10:56:03.494Z,5.4
2023-02-16T10:59:12.721Z,5.5
2023-02-16T11:02:02.938Z,5.7
2023-02-16T11:05:03.632Z,5.8
2023-02-16T11:08:16.847Z,5.9
2023-02-16T11:11:04.576Z,6
2023-02-16T11:13:55.724Z,6
2023-02-16T11:16:47.232Z,6
2023-02-16T11:19:47.513Z,6
2023-02-16T11:22:39.677Z,6
2023-02-16T11:25:27.249Z,6
2023-02-16T11:28:14.615Z,6.2
2023-02-16T11:31:12.112Z,6.3
2023-02-16T11:34:06.044Z,6.5
2023-02-16T11:37:05.049Z,6.7
2023-02-16T11:39:58.689Z,6.9
2023-02-16T11:42:54.186Z,7.2
2023-02-16T11:45:45.537Z,7.4
2023-02-16T11:48:44.005Z,7.6
2023-02-16T11:51:32.256Z,7.7
2023-02-16T11:54:20.984Z,7.8
2023-02-16T11:57:08.754Z,7.8
2023-02-16T11:59:58.979Z,7.7
2023-02-16T12:02:54.117Z,7.7
2023-02-16T12:06:09.917Z,7.7
2023-02-16T12:09:14.197Z,7.7
2023-02-16T12:12:14.883Z,7.7
2023-02-16T12:15:06.058Z,7.7
2023-02-16T12:18:06.073Z,7.6
2023-02-16T12:21:10.040Z,7.6
2023-02-16T12:24:07.087Z,7.7
2023-02-16T12:27:08.277Z,7.8
2023-02-16T12:30:05.794Z,7.8
2023-02-16T12:33:09.901Z,7.9
2023-02-16T12:36:11.688Z,7.9
2023-02-16T12:39:31.322Z,8.1
2023-02-16T12:42:32.841Z,8.1
2023-02-16T12:45:35.567Z,8.2
2023-02-16T12:48:28.100Z,8.3
2023-02-16T12:51:26.354Z,8.4
2023-02-16T12:54:20.624Z,8.6
2023-02-16T12:57:14.072Z,8.6
2023-02-16T13:00:05.874Z,8.6
2023-02-16T13:03:05.087Z,8.6
2023-02-16T13:06:09.754Z,8.6
2023-02-16T13:09:05.054Z,8.6
2023-02-16T13:12:06.926Z,8.7
2023-02-16T13:15:06.428Z,8.8
2023-02-16T13:17:59.528Z,9
2023-02-16T13:20:51.100Z,9.1
2023-02-16T13:23:44.893Z,9.2
2023-02-16T13:26:47.307Z,9.2
2023-02-16T13:29:50.825Z,9.4
2023-02-16T13:32:50.809Z,9.4
2023-02-16T13:35:58.332Z,9.5
2023-02-16T13:39:00.529Z,9.7
2023-02-16T13:42:26.501Z,9.9
2023-02-16T13:45:31.522Z,10
2023-02-16T13:48:24.770Z,10.2
2023-02-16T13:51:16.303Z,10.1
2023-02-16T13:54:05.526Z,10
2023-02-16T13:57:08.326Z,9.9
2023-02-16T13:59:58.054Z,9.9
2023-02-16T14:02:50.148Z,9.9
2023-02-16T14:05:41.592Z,9.9
2023-02-16T14:08:30.940Z,9.9
2023-02-16T14:11:18.449Z,9.9
2023-02-16T14:14:06.409Z,9.8
2023-02-16T14:17:12.052Z,9.8
2023-02-16T14:20:02.571Z,9.7
2023-02-16T14:23:10.017Z,9.6
2023-02-16T14:26:13.599Z,9.6
2023-02-16T14:29:02.387Z,9.5
2023-02-16T14:32:02.739Z,9.5
2023-02-16T14:35:05.838Z,9.6
2023-02-16T14:38:01.703Z,9.7
2023-02-16T14:40:52.892Z,9.7
2023-02-16T14:43:43.154Z,9.7
2023-02-16T14:46:33.140Z,9.7
2023-02-16T14:49:37.195Z,9.6
2023-02-16T14:52:42.307Z,9.5
2023-02-16T14:55:48.511Z,9.4
2023-02-16T14:58:56.238Z,9.2
2023-02-16T15:01:48.449Z,9.1
2023-02-16T15:04:36.117Z,9
2023-02-16T15:07:24.350Z,8.9
2023-02-16T15:10:13.425Z,8.8
2023-02-16T15:13:06.516Z,8.7
2023-02-16T15:15:54.697Z,8.6
2023-02-16T15:18:46.766Z,8.5
2023-02-16T15:21:39.126Z,8.4
2023-02-16T15:24:26.597Z,8.3
2023-02-16T15:27:14.158Z,8.2
2023-02-16T15:30:07.978Z,8
2023-02-16T15:33:07.996Z,8
2023-02-16T15:36:10.384Z,7.9
2023-02-16T15:39:02.601Z,7.8
2023-02-16T15:41:52.230Z,7.7
2023-02-16T15:44:56.821Z,7.6
2023-02-16T15:47:46.128Z,7.6
2023-02-16T15:50:33.983Z,7.5
2023-02-16T15:53:22.271Z,7.4
2023-02-16T15:56:18.478Z,7.4
2023-02-16T15:59:20.257Z,7.3
2023-02-16T16:02:17.133Z,7.2
2023-02-16T16:05:06.769Z,7.2
2023-02-16T16:08:07.599Z,7.1
2023-02-16T16:10:59.377Z,7
2023-02-16T16:13:47.121Z,6.9
2023-02-16T16:16:34.919Z,6.8
2023-02-16T16:19:23.092Z,6.7
2023-02-16T16:22:18.506Z,6.7
2023-02-16T16:25:18.850Z,6.6
2023-02-16T16:28:14.924Z,6.6
2023-02-16T16:31:20.368Z,6.5
2023-02-16T16:34:40.187Z,6.5
2023-02-16T16:37:27.775Z,6.4
2023-02-16T16:40:19.204Z,6.4
2023-02-16T16:43:11.193Z,6.3
2023-02-16T16:46:03.507Z,6.3
2023-02-16T16:49:05.241Z,6.2
2023-02-16T16:52:01.452Z,6.1
2023-02-16T16:54:51.046Z,6.1
2023-02-16T16:57:38.478Z,6.1
2023-02-16T17:00:25.916Z,6
2023-02-16T17:03:18.987Z,6
2023-02-16T17:06:07.277Z,5.9
2023-02-16T17:08:55.516Z,5.8
2023-02-16T17:11:43.088Z,5.8
2023-02-16T17:14:30.418Z,5.7
2023-02-16T17:17:18.926Z,5.7
2023-02-16T17:20:06.499Z,5.7
2023-02-16T17:22:59.419Z,5.6
2023-02-16T17:25:49.281Z,5.6
2023-02-16T17:28:36.830Z,5.6
2023-02-16T17:31:24.461Z,5.5
2023-02-16T17:34:12.013Z,5.5
2023-02-16T17:36:59.365Z,5.5
2023-02-16T17:39:50.059Z,5.5
2023-02-16T17:42:37.673Z,5.5
2023-02-16T17:45:25.023Z,5.5
2023-02-16T17:48:12.367Z,5.5
2023-02-16T17:51:03.206Z,5.4
2023-02-16T17:53:51.612Z,5.4
2023-02-16T17:56:40.270Z,5.4
2023-02-16T17:59:30.942Z,5.4
2023-02-16T18:02:19.134Z,5.4
2023-02-16T18:05:06.524Z,5.4
2023-02-16T18:07:54.701Z,5.4
2023-02-16T18:10:42.932Z,5.4
2023-02-16T18:13:32.863Z,5.4
2023-02-16T18:16:20.569Z,5.4
2023-02-16T18:19:12.534Z,5.4
2023-02-16T18:22:00.258Z,5.4
2023-02-16T18:24:49.479Z,5.5
2023-02-16T18:27:36.849Z,5.5
2023-02-16T18:30:24.591Z,5.5
2023-02-16T18:33:12.320Z,5.5
2023-02-16T18:36:00.101Z,5.5
2023-02-16T18:38:48.386Z,5.5
2023-02-16T18:41:36.197Z,5.5
2023-02-16T18:44:24.121Z,5.5
2023-02-16T18:47:11.511Z,5.5
2023-02-16T18:49:59.122Z,5.5
2023-02-16T18:52:46.549Z,5.5
2023-02-16T18:55:34.511Z,5.5
2023-02-16T18:58:22.168Z,5.5
2023-02-16T19:01:09.772Z,5.5
2023-02-16T19:03:59.116Z,5.5
2023-02-16T19:06:48.036Z,5.5
2023-02-16T19:09:36.119Z,5.5
2023-02-16T19:12:23.635Z,5.6
2023-02-16T19:15:11.116Z,5.6
2023-02-16T19:17:58.549Z,5.6
2023-02-16T19:20:46.157Z,5.6
2023-02-16T19:23:33.498Z,5.6
2023-02-16T19:26:21.982Z,5.6
2023-02-16T19:29:09.382Z,5.6
2023-02-16T19:31:57.734Z,5.6
2023-02-16T19:34:45.248Z,5.6
2023-02-16T19:37:32.673Z,5.6
2023-02-16T19:40:19.992Z,5.6
2023-02-16T19:43:07.605Z,5.6
2023-02-16T19:45:55.292Z,5.6
2023-02-16T19:48:42.984Z,5.6
2023-02-16T19:51:30.820Z,5.6
2023-02-16T19:54:18.625Z,5.6
2023-02-16T19:57:06.746Z,5.6
2023-02-16T19:59:54.444Z,5.7
2023-02-16T20:02:42.759Z,5.7
2023-02-16T20:05:30.310Z,5.7
2023-02-16T20:08:18.290Z,5.7
2023-02-16T20:11:05.669Z,5.7
2023-02-16T20:13:53.311Z,5.7
2023-02-16T20:16:42.418Z,5.7
2023-02-16T20:19:30.203Z,5.8
2023-02-16T20:22:17.592Z,5.8
2023-02-16T20:25:05.035Z,5.8
2023-02-16T20:27:52.824Z,5.8
2023-02-16T20:30:42.869Z,5.9
2023-02-16T20:33:30.656Z,5.9
2023-02-16T20:36:18.000Z,5.9
2023-02-16T20:39:06.732Z,5.9
2023-02-16T20:41:54.595Z,5.9
2023-02-16T20:44:43.207Z,6
2023-02-16T20:47:30.655Z,6
2023-02-16T20:50:18.210Z,6
2023-02-16T20:53:05.768Z,6
2023-02-16T20:55:53.659Z,6
2023-02-16T20:58:47.117Z,6
2023-02-16T21:01:36.532Z,6.1
2023-02-16T21:04:27.976Z,6
2023-02-16T21:07:15.664Z,6.1
2023-02-16T21:10:03.356Z,6
2023-02-16T21:12:54.920Z,6
2023-02-16T21:15:42.952Z,6
2023-02-16T21:18:30.278Z,5.9
2023-02-16T21:21:18.012Z,5.9
2023-02-16T21:24:06.247Z,5.9
2023-02-16T21:26:54.094Z,5.9
2023-02-16T21:29:43.106Z,5.9
2023-02-16T21:32:30.674Z,5.9
2023-02-16T21:35:18.283Z,5.9
2023-02-16T21:38:05.736Z,5.9
2023-02-16T21:40:53.394Z,5.9
2023-02-16T21:44:19.591Z,5.9
2023-02-16T21:47:07.211Z,5.9
2023-02-16T21:50:28.774Z,5.9
2023-02-16T21:53:19.764Z,5.9
2023-02-16T21:56:07.622Z,5.9
2023-02-16T21:59:08.468Z,5.9
2023-02-16T22:01:57.491Z,5.9
2023-02-16T22:04:44.916Z,5.9
2023-02-16T22:07:33.763Z,5.9
2023-02-16T22:10:21.721Z,5.9
2023-02-16T22:13:09.493Z,5.8
2023-02-16T22:15:56.929Z,5.8
2023-02-16T22:18:44.496Z,5.8
2023-02-16T22:21:32.531Z,5.7
2023-02-16T22:24:21.378Z,5.7
2023-02-16T22:27:08.770Z,5.7
2023-02-16T22:29:56.216Z,5.8
2023-02-16T22:32:43.694Z,5.8
2023-02-16T22:35:31.172Z,5.8
2023-02-16T22:38:18.816Z,5.8
2023-02-16T22:41:06.141Z,5.8
2023-02-16T22:43:55.209Z,5.8
2023-02-16T22:46:44.247Z,5.8
2023-02-16T22:49:31.768Z,5.8
2023-02-16T22:52:19.071Z,5.8
2023-02-16T22:55:06.362Z,5.8
2023-02-16T22:57:54.880Z,5.9
2023-02-16T23:00:43.362Z,5.9
2023-02-16T23:03:31.264Z,5.9
2023-02-16T23:06:18.638Z,5.9
2023-02-16T23:09:10.218Z,5.9
2023-02-16T23:12:00.300Z,5.9
2023-02-16T23:14:47.846Z,6
2023-02-16T23:17:35.363Z,5.9
2023-02-16T23:20:22.865Z,5.9
2023-02-16T23:23:10.248Z,5.9
2023-02-16T23:25:57.573Z,5.9
2023-02-16T23:28:45.111Z,5.9
2023-02-16T23:31:35.935Z,5.9
2023-02-16T23:34:25.716Z,5.8
2023-02-16T23:37:13.072Z,5.8
2023-02-16T23:40:01.100Z,5.8
2023-02-16T23:42:49.623Z,5.8
2023-02-16T23:45:36.979Z,5.8
2023-02-16T23:48:24.506Z,5.7
2023-02-16T23:51:12.470Z,5.7
2023-02-16T23:53:59.886Z,5.7
2023-02-16T23:56:47.283Z,5.7
2023-02-16T23:59:34.614Z,5.7
